Maidstone, Canada
Current Conditions -  °F | °C
As of 4:00 AM on Saturday 20 Dec 2014 (Local Time) from CYLL Reporting Station
Overcast Overcast  
Wind Chill:   Ceiling: 7000
Heat Index: 16°   Visibility: 7mi
Dew Point: 14°   Wind: 6mph
Humidity: 93%   Direction: 110°ESE
Pressure: 29.69"   Gusts: NA
Location:  53.08°N, 109.3°W
Report Text: CYLL 201000Z AUTO 11005KT 7SM OVC070 M09/M10 A2969 RMK SLP103
Loading
Personal Weather Stations






























Interactive Weather Map New forecast layout! Learn more

10-Day Weather Forecast

Advertisements
Track Severe Weather on mobile